Time;durP1;ratioP1;P1;durP2;ratioP2;P2;SDS_P1;SDS_P2;PMS_P1;PMS_P2;Temp;Humidity;BMP_temperature;BMP_pressure;BME280_temperature;BME280_humidity;BME280_pressure;Samples;Min_cycle;Max_cycle;Signal;HPM_P1;HPM_P2
2021/11/12 00:02:18;;;;;;;18.40;9.80;;;;;;;2.16;70.88;99326.14;101998;1317;72978;-24
2021/11/12 00:13:11;;;;;;;19.30;11.00;;;;;;;1.25;73.11;99317.11;102230;1317;75125;-24
2021/11/12 00:15:47;;;;;;;10.60;5.40;;;;;;;1.14;73.21;99315.31;102143;1314;74027;-24
2021/11/12 00:18:16;;;;;;;19.50;9.40;;;;;;;1.76;73.23;99317.52;102278;1313;61328;-24
2021/11/12 00:20:56;;;;;;;16.00;9.00;;;;;;;2.45;71.45;99316.37;102306;1312;61496;-23
2021/11/12 00:23:25;;;;;;;20.90;10.00;;;;;;;2.53;70.59;99314.82;101857;1320;75471;-24
2021/11/12 00:25:54;;;;;;;14.70;7.90;;;;;;;2.35;70.88;99311.83;102125;1314;76092;-23
2021/11/12 00:28:25;;;;;;;18.10;8.70;;;;;;;2.09;71.07;99312.73;102122;1313;74195;-23
2021/11/12 00:39:30;;;;;;;18.40;11.10;;;;;;;1.19;73.76;99307.93;101371;1324;74916;-22
2021/11/12 00:42:15;;;;;;;13.70;6.20;;;;;;;1.09;74.78;99304.91;101584;1322;74355;-23
2021/11/12 00:45:09;;;;;;;21.90;11.00;;;;;;;1.89;73.66;99307.23;98985;1349;600403;-24
2021/11/12 00:55:27;;;;;;;15.80;9.60;;;;;;;1.95;72.48;99304.40;100774;1327;75205;-24
2021/11/12 00:57:56;;;;;;;18.60;11.30;;;;;;;1.71;73.20;99305.40;101072;1326;199638;-24
2021/11/12 01:00:24;;;;;;;20.60;11.30;;;;;;;1.50;73.90;99302.98;101644;1323;61333;-23
2021/11/12 01:02:54;;;;;;;19.30;11.70;;;;;;;1.31;74.51;99296.02;102379;1314;61215;-24
2021/11/12 01:05:23;;;;;;;16.30;8.10;;;;;;;1.19;75.16;99295.48;102737;1310;73782;-24
2021/11/12 01:07:51;;;;;;;20.80;10.30;;;;;;;1.68;74.78;99295.41;102592;1310;74138;-23
2021/11/12 01:10:19;;;;;;;18.30;10.40;;;;;;;2.36;72.34;99296.36;102266;1310;72729;-23
2021/11/12 01:12:50;;;;;;;17.50;8.80;;;;;;;2.47;71.44;99296.04;102253;1310;61065;-24
2021/11/12 01:15:19;;;;;;;18.80;9.40;;;;;;;2.29;71.81;99294.42;102256;1317;61181;-24
2021/11/12 01:17:48;;;;;;;20.60;10.60;;;;;;;2.05;72.44;99292.71;102122;1313;74877;-24
2021/11/12 01:20:17;;;;;;;22.60;11.90;;;;;;;1.79;73.14;99296.70;102311;1316;73304;-23
2021/11/12 01:22:46;;;;;;;17.80;11.50;;;;;;;1.55;73.96;99291.46;102310;1311;74541;-23
2021/11/12 01:25:21;;;;;;;22.20;11.60;;;;;;;1.36;74.92;99291.40;102258;1316;61077;-23
2021/11/12 01:27:50;;;;;;;15.00;7.70;;;;;;;1.22;75.35;99288.16;102315;1314;61105;-24
2021/11/12 01:30:18;;;;;;;17.40;8.90;;;;;;;1.68;74.64;99286.50;102326;1314;74881;-24
2021/11/12 01:32:54;;;;;;;16.90;10.00;;;;;;;2.34;72.53;99285.65;102286;1313;75089;-24
2021/11/12 01:35:24;;;;;;;17.40;10.00;;;;;;;2.37;71.78;99283.59;102229;1311;73568;-24
2021/11/12 01:37:53;;;;;;;18.50;10.00;;;;;;;2.19;72.20;99291.05;102296;1310;61071;-24
2021/11/12 01:40:23;;;;;;;20.80;10.50;;;;;;;1.94;72.84;99289.19;102272;1310;61147;-24
2021/11/12 01:42:56;;;;;;;18.60;10.90;;;;;;;1.70;73.38;99289.52;102274;1314;74817;-24
2021/11/12 01:45:47;;;;;;;18.60;10.30;;;;;;;1.46;74.37;99284.84;102261;1313;76107;-23
2021/11/12 01:54:18;;;;;;;15.30;9.20;;;;;;;1.76;74.99;99286.35;102303;1311;61080;-23
2021/11/12 01:59:15;;;;;;;19.10;10.30;;;;;;;2.32;72.19;99283.48;102266;1316;76135;-24
2021/11/12 02:01:46;;;;;;;18.20;8.90;;;;;;;2.09;72.62;99283.46;102291;1317;73154;-23
2021/11/12 02:04:18;;;;;;;17.40;10.30;;;;;;;1.79;73.49;99283.15;102220;1320;61230;-23
2021/11/12 02:06:46;;;;;;;18.90;11.00;;;;;;;1.52;74.67;99284.10;102278;1311;61199;-23
2021/11/12 02:09:21;;;;;;;20.20;11.80;;;;;;;1.29;75.28;99284.48;102218;1311;73655;-24
2021/11/12 02:12:04;;;;;;;20.70;11.60;;;;;;;1.08;76.14;99283.59;102284;1320;75993;-24
2021/11/12 02:14:34;;;;;;;12.90;7.10;;;;;;;0.93;77.14;99285.02;102156;1317;74301;-23
2021/11/12 02:17:12;;;;;;;19.20;10.90;;;;;;;1.48;76.20;99289.70;102327;1316;61803;-23
2021/11/12 02:19:54;;;;;;;18.20;9.90;;;;;;;2.11;73.82;99293.98;102252;1314;61708;-23
2021/11/12 02:22:26;;;;;;;17.20;9.70;;;;;;;2.10;73.24;99296.25;101962;1314;74615;-23
2021/11/12 02:25:08;;;;;;;16.00;9.10;;;;;;;1.86;73.89;99294.70;102185;1313;75349;-24
2021/11/12 02:28:03;;;;;;;17.40;10.30;;;;;;;1.56;74.79;99291.64;102297;1313;74176;-23
2021/11/12 02:30:32;;;;;;;18.10;9.80;;;;;;;1.24;76.18;99291.16;102265;1316;61163;-24
2021/11/12 02:33:07;;;;;;;19.10;9.80;;;;;;;1.02;76.96;99291.65;102299;1316;61126;-24
2021/11/12 02:35:38;;;;;;;13.50;8.80;;;;;;;0.85;77.95;99294.70;102269;1317;74889;-23
2021/11/12 02:38:07;;;;;;;21.30;11.50;;;;;;;1.27;76.94;99296.52;101884;1317;75255;-23
2021/11/12 02:40:36;;;;;;;22.00;10.40;;;;;;;1.84;74.85;99300.25;102217;1313;71525;-23
2021/11/12 02:43:05;;;;;;;22.10;11.50;;;;;;;1.89;74.12;99301.05;102146;1313;61335;-24
2021/11/12 02:45:35;;;;;;;17.50;9.70;;;;;;;1.66;74.36;99297.02;102167;1313;61072;-24
2021/11/12 02:48:04;;;;;;;16.60;9.90;;;;;;;1.38;75.43;99298.48;101757;1317;72554;-24
2021/11/12 02:50:32;;;;;;;15.40;9.40;;;;;;;1.16;76.57;99298.17;102111;1313;74725;-24
2021/11/12 02:53:04;;;;;;;22.80;11.90;;;;;;;0.92;77.52;99299.20;102193;1316;74614;-23
2021/11/12 02:55:33;;;;;;;19.40;9.60;;;;;;;0.75;79.00;99296.93;102145;1314;61086;-24
2021/11/12 02:58:03;;;;;;;20.20;11.20;;;;;;;1.23;77.75;99295.14;102256;1313;61199;-23
2021/11/12 03:00:32;;;;;;;19.50;9.80;;;;;;;1.80;75.47;99292.70;102232;1313;74982;-23
2021/11/12 03:03:00;;;;;;;22.60;10.60;;;;;;;1.83;74.74;99294.30;102256;1313;74292;-23
2021/11/12 03:05:30;;;;;;;21.80;10.90;;;;;;;1.64;75.35;99294.91;102246;1313;74395;-24
2021/11/12 03:07:59;;;;;;;16.40;10.10;;;;;;;1.39;75.97;99293.82;102236;1317;61202;-24
2021/11/12 03:10:28;;;;;;;18.20;10.40;;;;;;;1.17;77.07;99291.44;102322;1313;61145;-23
2021/11/12 03:12:56;;;;;;;18.30;9.60;;;;;;;0.93;78.03;99292.00;102263;1317;74582;-23
2021/11/12 03:15:25;;;;;;;13.30;8.50;;;;;;;0.78;78.82;99291.89;102233;1317;75167;-23
2021/11/12 03:17:55;;;;;;;17.70;9.60;;;;;;;1.23;78.34;99286.08;102294;1313;74610;-23
2021/11/12 03:20:24;;;;;;;16.70;8.80;;;;;;;1.85;75.62;99291.11;102287;1317;61982;-23
2021/11/12 03:23:00;;;;;;;17.00;9.60;;;;;;;1.90;75.08;99287.84;102276;1316;62169;-23
2021/11/12 03:28:54;;;;;;;16.30;9.50;;;;;;;1.44;76.12;99286.42;102281;1316;76165;-24
2021/11/12 04:04:35;;;;;;;19.40;10.00;;;;;;;1.93;76.54;99300.73;102236;1319;61252;-24
2021/11/12 05:10:02;;;;;;;25.30;10.60;;;;;;;1.96;76.63;99314.79;102280;1317;61059;-22
2021/11/12 05:50:34;;;;;;;19.10;9.60;;;;;;;2.10;76.84;99341.63;102173;1317;61953;-23
2021/11/12 05:55:49;;;;;;;21.80;12.00;;;;;;;1.62;78.79;99342.73;102083;1316;73729;-22
2021/11/12 05:58:18;;;;;;;21.50;12.20;;;;;;;1.43;79.79;99342.43;102090;1313;75129;-22
2021/11/12 06:00:46;;;;;;;23.60;13.60;;;;;;;1.28;80.34;99348.14;102187;1317;74515;-23
2021/11/12 06:03:16;;;;;;;16.30;9.80;;;;;;;1.17;81.72;99346.67;102183;1314;62034;-23
2021/11/12 06:05:45;;;;;;;20.40;10.50;;;;;;;1.75;80.66;99346.80;102119;1314;61192;-22
2021/11/12 06:08:14;;;;;;;22.80;10.30;;;;;;;2.41;78.26;99344.44;102134;1316;73217;-23
2021/11/12 06:10:43;;;;;;;19.50;11.10;;;;;;;2.53;77.30;99337.08;102072;1313;76193;-22
2021/11/12 06:13:11;;;;;;;22.50;11.70;;;;;;;2.39;77.84;99337.01;102128;1317;73651;-23
2021/11/12 06:15:40;;;;;;;20.40;11.70;;;;;;;2.20;78.67;99340.71;102187;1316;61097;-22
2021/11/12 06:18:10;;;;;;;19.30;12.10;;;;;;;1.99;79.48;99342.95;102251;1314;61108;-23
2021/11/12 06:20:39;;;;;;;25.80;14.20;;;;;;;1.85;80.35;99345.39;102261;1316;74690;-22
2021/11/12 06:23:08;;;;;;;19.20;10.70;;;;;;;1.77;81.18;99343.65;102250;1317;76212;-22
2021/11/12 06:25:36;;;;;;;22.60;13.00;;;;;;;2.35;79.89;99345.55;102251;1318;74623;-24
2021/11/12 06:28:05;;;;;;;21.60;11.10;;;;;;;2.98;77.16;99347.98;102169;1316;61907;-23
2021/11/12 06:30:33;;;;;;;21.70;12.10;;;;;;;3.09;76.51;99351.58;102183;1316;61119;-23
2021/11/12 06:33:03;;;;;;;23.60;13.10;;;;;;;3.00;76.65;99355.10;102206;1316;76314;-23
2021/11/12 06:35:32;;;;;;;15.80;10.20;;;;;;;2.86;77.30;99356.88;102121;1317;75058;-23
2021/11/12 06:38:00;;;;;;;18.70;11.40;;;;;;;2.75;77.86;99360.45;102108;1320;74252;-23
2021/11/12 06:40:30;;;;;;;21.70;13.60;;;;;;;2.72;78.36;99358.38;102282;1314;61269;-23
2021/11/12 06:43:20;;;;;;;25.70;14.90;;;;;;;2.70;78.54;99354.69;102067;1313;61833;-23
2021/11/12 06:51:23;;;;;;;19.40;11.70;;;;;;;3.59;76.89;99346.52;102250;1319;72941;-23
2021/11/12 06:53:52;;;;;;;25.40;13.70;;;;;;;4.08;74.75;99349.86;102353;1319;61249;-23
2021/11/12 06:56:23;;;;;;;25.30;13.50;;;;;;;4.20;74.38;99348.73;102271;1317;61911;-23
2021/11/12 06:58:52;;;;;;;25.50;14.40;;;;;;;4.17;74.35;99351.79;101993;1316;74230;-23
2021/11/12 07:01:20;;;;;;;24.30;14.00;;;;;;;4.08;75.02;99347.95;102182;1316;75961;-23
2021/11/12 07:03:48;;;;;;;22.00;13.50;;;;;;;4.02;75.53;99346.86;102169;1316;72908;-23
2021/11/12 07:06:17;;;;;;;32.40;16.80;;;;;;;4.04;75.45;99347.09;102220;1317;61207;-23
2021/11/12 07:08:46;;;;;;;27.10;16.90;;;;;;;4.05;75.94;99344.67;102264;1317;62217;-23
2021/11/12 07:11:15;;;;;;;26.60;15.40;;;;;;;4.12;75.97;99343.98;102292;1317;75595;-23
2021/11/12 07:13:44;;;;;;;29.80;17.30;;;;;;;4.18;75.92;99345.06;102278;1317;76247;-24
2021/11/12 07:16:13;;;;;;;23.50;14.30;;;;;;;4.25;75.93;99346.26;102192;1316;74185;-23
2021/11/12 07:18:42;;;;;;;29.30;17.30;;;;;;;4.37;75.73;99345.30;102154;1316;61236;-23
2021/11/12 07:21:10;;;;;;;33.30;17.30;;;;;;;4.39;75.76;99349.88;102163;1314;61176;-23
2021/11/12 07:24:01;;;;;;;26.90;15.10;;;;;;;4.36;76.50;99354.98;102125;1317;75873;-23
2021/11/12 07:26:30;;;;;;;21.80;11.90;;;;;;;4.45;76.77;99358.16;102142;1316;76025;-23
2021/11/12 07:28:59;;;;;;;23.90;13.40;;;;;;;5.13;74.90;99354.44;102139;1316;74534;-23
2021/11/12 07:31:42;;;;;;;28.50;15.10;;;;;;;5.92;72.25;99364.39;102156;1316;61195;-23
2021/11/12 07:34:11;;;;;;;22.50;14.60;;;;;;;6.10;71.60;99370.46;102087;1313;62081;-23
2021/11/12 07:36:44;;;;;;;33.00;19.40;;;;;;;6.10;71.77;99372.52;102119;1314;74649;-23
2021/11/12 07:39:20;;;;;;;26.20;15.10;;;;;;;6.05;71.76;99370.03;102182;1317;76501;-23
2021/11/12 07:49:29;;;;;;;25.40;16.10;;;;;;;5.74;73.28;99371.06;102163;1316;74238;-23
2021/11/12 07:51:58;;;;;;;31.80;18.20;;;;;;;5.60;73.70;99364.96;102152;1316;75867;-23
2021/11/12 07:54:27;;;;;;;22.70;13.50;;;;;;;5.69;73.16;99359.27;102130;1314;74587;-23
2021/11/12 07:56:56;;;;;;;30.00;18.00;;;;;;;5.95;72.59;99364.73;102102;1314;62023;-23
2021/11/12 07:59:24;;;;;;;27.00;17.30;;;;;;;6.00;72.38;99365.80;102126;1317;62069;-24
2021/11/12 08:01:53;;;;;;;27.00;15.30;;;;;;;5.80;73.27;99364.85;102254;1313;74351;-23
2021/11/12 08:04:22;;;;;;;29.50;18.70;;;;;;;5.73;72.64;99359.60;102269;1318;76522;-23
2021/11/12 08:06:54;;;;;;;25.00;13.30;;;;;;;5.52;73.29;99360.91;102208;1316;74170;-23
2021/11/12 08:09:26;;;;;;;31.40;17.10;;;;;;;5.71;73.05;99364.19;102190;1316;61902;-23
2021/11/12 08:14:30;;;;;;;28.10;17.90;;;;;;;5.85;72.32;99367.16;102188;1316;72697;-23
2021/11/12 08:24:54;;;;;;;27.30;16.90;;;;;;;5.64;72.77;99370.77;102224;1314;61171;-23
2021/11/12 08:42:33;;;;;;;25.80;15.70;;;;;;;6.40;71.51;99374.09;102197;1316;75912;-23
2021/11/12 08:45:08;;;;;;;29.90;17.20;;;;;;;6.07;72.44;99370.41;102140;1317;71044;-23
2021/11/12 08:47:40;;;;;;;29.60;17.30;;;;;;;6.07;72.45;99371.28;102145;1316;61217;-23
2021/11/12 08:50:18;;;;;;;23.00;14.90;;;;;;;6.08;73.08;99377.81;102173;1317;61190;-23
2021/11/12 08:52:48;;;;;;;27.90;13.40;;;;;;;6.56;71.71;99377.94;102106;1313;74306;-23
2021/11/12 08:55:23;;;;;;;29.90;15.80;;;;;;;6.84;70.24;99380.43;101789;1313;74723;-23
2021/11/12 08:57:52;;;;;;;29.20;18.00;;;;;;;6.56;71.24;99379.33;102003;1314;179261;-24
2021/11/12 09:00:21;;;;;;;23.90;15.60;;;;;;;6.41;72.14;99384.39;101661;1317;62224;-23
2021/11/12 09:02:49;;;;;;;28.10;16.40;;;;;;;6.17;73.05;99385.41;102002;1313;62419;-23
2021/11/12 09:05:20;;;;;;;23.80;16.10;;;;;;;5.97;74.33;99384.97;102211;1314;75368;-23
2021/11/12 09:07:51;;;;;;;16.50;9.00;;;;;;;5.95;74.57;99378.19;101697;1313;75067;-23
2021/11/12 09:10:20;;;;;;;26.50;15.30;;;;;;;6.43;73.49;99385.77;102145;1313;74536;-24
2021/11/12 09:12:56;;;;;;;22.90;13.00;;;;;;;6.54;73.06;99388.91;101945;1313;61145;-23
2021/11/12 09:15:29;;;;;;;24.80;13.80;;;;;;;6.78;71.86;99383.73;102234;1314;61205;-23
2021/11/12 09:18:01;;;;;;;27.50;14.90;;;;;;;6.70;72.21;99386.77;101973;1313;75636;-23
2021/11/12 09:20:30;;;;;;;25.70;14.50;;;;;;;6.35;74.27;99375.38;102144;1314;74990;-23
2021/11/12 09:22:59;;;;;;;26.90;15.00;;;;;;;6.50;74.51;99380.02;102183;1319;73541;-23
2021/11/12 09:25:27;;;;;;;25.00;13.80;;;;;;;6.64;74.23;99378.52;102054;1314;63718;-23
2021/11/12 09:27:55;;;;;;;19.80;12.30;;;;;;;6.88;73.66;99380.70;102107;1319;61114;-23
2021/11/12 09:30:25;;;;;;;23.90;14.60;;;;;;;7.08;72.90;99374.84;101834;1313;74221;-23
2021/11/12 09:32:54;;;;;;;20.90;12.70;;;;;;;7.01;73.09;99372.33;101961;1317;75201;-23
2021/11/12 09:35:23;;;;;;;21.00;12.30;;;;;;;6.81;74.21;99376.31;101978;1313;74479;-23
2021/11/12 09:37:53;;;;;;;25.00;13.40;;;;;;;6.80;73.81;99370.51;102012;1317;61194;-23
2021/11/12 09:40:22;;;;;;;22.50;14.60;;;;;;;6.76;74.46;99374.55;102090;1314;61130;-23
2021/11/12 09:42:51;;;;;;;21.30;14.00;;;;;;;6.67;75.50;99375.41;102049;1313;74531;-23
2021/11/12 09:45:19;;;;;;;25.30;14.30;;;;;;;7.18;73.89;99377.34;102222;1314;76117;-23
2021/11/12 09:47:48;;;;;;;21.00;12.70;;;;;;;7.09;74.31;99376.32;102297;1317;74570;-24
2021/11/12 09:50:22;;;;;;;18.10;9.60;;;;;;;7.21;74.79;99376.77;102290;1313;61300;-23
2021/11/12 09:52:51;;;;;;;23.20;14.30;;;;;;;7.33;74.07;99376.92;102056;1314;61291;-23
2021/11/12 09:55:20;;;;;;;26.30;13.90;;;;;;;7.04;75.66;99381.15;101917;1320;75611;-23
2021/11/12 09:57:49;;;;;;;18.50;10.40;;;;;;;7.08;76.17;99383.09;102244;1313;76217;-23
2021/11/12 10:00:20;;;;;;;22.90;12.60;;;;;;;7.09;76.39;99377.88;102139;1314;73187;-23
2021/11/12 10:02:49;;;;;;;23.00;13.90;;;;;;;7.27;75.60;99376.09;101645;1317;61884;-23
2021/11/12 10:05:39;;;;;;;20.10;12.30;;;;;;;7.19;76.15;99378.17;102042;1313;62504;-23
2021/11/12 10:08:21;;;;;;;20.00;13.40;;;;;;;6.96;77.00;99380.55;101954;1312;73771;-22
2021/11/12 10:10:54;;;;;;;16.30;11.00;;;;;;;6.68;78.25;99379.64;102215;1313;76101;-24
2021/11/12 10:13:31;;;;;;;11.20;5.70;;;;;;;6.85;78.32;99378.29;101877;1314;73409;-24
2021/11/12 10:16:57;;;;;;;16.40;9.00;;;;;;;7.18;76.92;99375.23;102148;1313;61186;-25
2021/11/12 10:19:17;;;;;;;19.60;10.40;;;;;;;7.35;76.48;99374.08;101891;1317;61969;-25
2021/11/12 10:21:48;;;;;;;22.30;12.80;;;;;;;7.46;76.03;99375.79;102014;1317;75672;-25
2021/11/12 10:24:25;;;;;;;21.70;12.00;;;;;;;6.96;77.85;99376.41;102154;1313;75112;-23
2021/11/12 10:27:00;;;;;;;18.10;11.20;;;;;;;6.64;79.64;99384.88;101947;1313;74557;-23
2021/11/12 10:29:34;;;;;;;20.40;12.30;;;;;;;6.85;79.78;99379.84;101895;1317;62531;-23
2021/11/12 10:32:07;;;;;;;19.00;11.30;;;;;;;7.48;77.86;99378.39;102027;1313;61931;-23
2021/11/12 10:34:39;;;;;;;18.20;9.80;;;;;;;7.49;76.57;99377.66;102177;1313;75591;-25
2021/11/12 10:37:30;;;;;;;11.70;7.80;;;;;;;7.41;76.80;99375.05;102175;1313;75953;-27
2021/11/12 10:40:05;;;;;;;18.20;9.10;;;;;;;7.14;77.80;99377.90;102238;1313;72893;-28
2021/11/12 10:42:35;;;;;;;16.10;9.30;;;;;;;6.97;79.01;99378.12;102297;1317;63787;-27
2021/11/12 10:45:12;;;;;;;13.50;8.10;;;;;;;7.41;77.92;99367.27;102235;1313;61195;-26
2021/11/12 10:47:48;;;;;;;16.10;9.10;;;;;;;7.66;76.86;99366.75;102057;1317;74117;-23
2021/11/12 10:50:17;;;;;;;15.80;7.80;;;;;;;7.46;77.24;99363.64;102076;1317;76105;-23
2021/11/12 10:52:46;;;;;;;14.20;8.50;;;;;;;7.03;79.12;99365.44;102188;1313;73553;-23
2021/11/12 10:55:20;;;;;;;13.50;9.20;;;;;;;7.03;79.32;99359.95;102289;1313;61268;-22
2021/11/12 10:57:53;;;;;;;16.60;10.00;;;;;;;7.11;79.24;99365.67;102056;1317;61177;-22
2021/11/12 11:00:23;;;;;;;17.50;11.50;;;;;;;7.32;78.52;99367.33;102183;1314;74691;-23
2021/11/12 11:02:53;;;;;;;14.70;8.80;;;;;;;7.53;77.74;99366.66;102234;1314;74416;-23
2021/11/12 11:05:43;;;;;;;19.60;11.20;;;;;;;7.64;77.28;99362.54;102145;1317;74544;-23
2021/11/12 11:08:14;;;;;;;17.60;9.20;;;;;;;7.49;78.49;99365.91;102031;1314;61198;-23
2021/11/12 11:10:50;;;;;;;23.40;10.40;;;;;;;7.23;79.81;99365.64;102152;1316;61128;-22
2021/11/12 11:13:20;;;;;;;16.70;10.30;;;;;;;7.15;80.51;99362.49;102207;1314;75697;-23
2021/11/12 11:15:49;;;;;;;13.80;8.70;;;;;;;7.65;78.67;99358.86;101890;1314;76601;-23
2021/11/12 11:18:24;;;;;;;14.10;9.20;;;;;;;7.58;79.08;99357.89;102241;1313;74392;-23
2021/11/12 11:21:04;;;;;;;16.50;9.80;;;;;;;7.48;79.63;99359.77;102195;1313;61163;-23
2021/11/12 11:23:46;;;;;;;14.30;8.90;;;;;;;7.25;80.71;99361.18;102136;1319;61192;-24
2021/11/12 11:26:22;;;;;;;15.40;8.90;;;;;;;7.00;82.29;99366.34;102219;1317;73458;-23
2021/11/12 11:28:53;;;;;;;16.30;9.20;;;;;;;7.64;80.28;99362.02;102205;1313;74644;-22
2021/11/12 11:31:27;;;;;;;18.30;11.30;;;;;;;7.86;79.30;99360.83;102215;1313;74403;-22
2021/11/12 11:33:56;;;;;;;17.80;10.80;;;;;;;7.94;78.94;99357.53;101882;1316;62108;-23
2021/11/12 11:36:26;;;;;;;22.40;11.80;;;;;;;7.76;79.24;99356.74;102308;1313;61147;-23
2021/11/12 11:38:55;;;;;;;17.30;10.50;;;;;;;7.52;79.40;99352.73;102213;1314;74326;-23
2021/11/12 11:41:24;;;;;;;15.20;9.50;;;;;;;7.50;79.79;99356.50;102259;1313;76142;-23
2021/11/12 11:43:54;;;;;;;11.80;7.20;;;;;;;7.80;79.02;99351.84;102235;1313;72303;-22
2021/11/12 11:46:24;;;;;;;14.00;9.70;;;;;;;8.14;77.74;99347.70;102207;1313;61173;-22
2021/11/12 11:48:54;;;;;;;14.00;9.00;;;;;;;8.15;77.66;99348.69;101911;1313;61454;-23
2021/11/12 11:51:28;;;;;;;12.90;8.80;;;;;;;7.97;77.92;99345.54;101687;1317;75670;-22
2021/11/12 11:54:12;;;;;;;16.00;9.80;;;;;;;7.79;78.53;99350.03;101875;1313;75096;-23
2021/11/12 11:56:44;;;;;;;16.20;9.50;;;;;;;7.86;78.77;99350.94;101608;1317;74387;-22
2021/11/12 11:59:20;;;;;;;16.20;8.60;;;;;;;8.37;76.78;99347.42;101917;1313;61573;-23
2021/11/12 12:01:55;;;;;;;16.60;10.50;;;;;;;8.42;75.98;99351.75;101934;1313;61083;-22
2021/11/12 12:04:24;;;;;;;17.10;10.70;;;;;;;8.16;76.93;99352.08;101690;1316;74475;-23
2021/11/12 12:07:04;;;;;;;15.90;10.90;;;;;;;7.87;77.68;99348.27;101863;1314;76016;-23
2021/11/12 12:09:52;;;;;;;13.60;7.90;;;;;;;7.68;78.10;99345.71;101619;1317;75213;-23
2021/11/12 12:12:30;;;;;;;16.50;8.80;;;;;;;7.65;78.81;99343.45;102045;1314;63624;-23
2021/11/12 12:15:04;;;;;;;14.60;8.90;;;;;;;8.19;77.02;99351.38;101960;1319;62527;-23
2021/11/12 12:17:43;;;;;;;12.00;8.20;;;;;;;8.32;76.29;99351.35;102108;1314;75563;-22
2021/11/12 13:20:44;;;;;;;18.60;10.30;;;;;;;8.12;76.60;99385.20;102031;1313;72709;-23
2021/11/12 13:26:03;;;;;;;17.70;10.90;;;;;;;7.53;78.51;99384.84;102102;1317;61116;-22
2021/11/12 13:28:32;;;;;;;13.00;8.50;;;;;;;7.30;79.46;99384.39;102228;1313;75349;-24
2021/11/12 13:31:13;;;;;;;17.40;11.80;;;;;;;7.76;77.62;99388.02;102134;1316;75891;-23
2021/11/12 13:33:55;;;;;;;16.30;10.90;;;;;;;7.91;76.89;99390.20;101829;1317;74497;-23
2021/11/12 13:36:28;;;;;;;15.60;9.30;;;;;;;7.84;76.89;99390.97;101610;1314;61180;-23
2021/11/12 13:39:20;;;;;;;16.30;10.60;;;;;;;7.56;78.02;99392.98;101934;1313;61210;-24
2021/11/12 13:41:51;;;;;;;14.90;10.00;;;;;;;7.41;78.64;99395.11;102055;1313;75578;-23
2021/11/12 13:44:21;;;;;;;12.70;9.30;;;;;;;7.27;79.48;99390.05;101964;1316;76210;-23
2021/11/12 13:46:58;;;;;;;17.30;10.20;;;;;;;7.83;77.61;99386.02;101824;1313;72522;-23
2021/11/12 13:49:33;;;;;;;15.60;9.10;;;;;;;8.21;75.88;99381.17;102078;1316;61186;-24
2021/11/12 13:52:08;;;;;;;18.30;11.90;;;;;;;8.11;75.86;99383.01;102192;1314;61852;-22
2021/11/12 13:54:43;;;;;;;15.70;10.60;;;;;;;7.78;77.12;99384.29;101969;1313;75966;-23
2021/11/12 13:57:20;;;;;;;17.20;10.50;;;;;;;7.55;77.92;99379.90;102156;1313;76235;-22
2021/11/12 13:59:58;;;;;;;10.10;7.10;;;;;;;7.41;78.67;99382.66;101885;1313;73608;-23
2021/11/12 14:02:31;;;;;;;18.50;10.70;;;;;;;7.90;77.26;99383.84;101937;1314;61284;-22
2021/11/12 14:05:09;;;;;;;18.90;12.30;;;;;;;8.18;75.92;99390.34;101787;1314;61083;-23
2021/11/12 14:07:38;;;;;;;18.00;11.50;;;;;;;8.00;76.45;99395.19;101807;1317;75438;-23
2021/11/12 14:10:09;;;;;;;19.40;12.70;;;;;;;7.69;77.56;99397.82;102176;1313;75656;-22
2021/11/12 14:12:53;;;;;;;23.10;13.70;;;;;;;7.41;78.79;99398.89;101699;1317;74673;-23
2021/11/12 14:15:35;;;;;;;21.20;10.90;;;;;;;7.15;80.04;99397.70;101922;1317;62800;-22
2021/11/12 14:30:01;;;;;;;18.30;12.30;;;;;;;7.22;79.70;99407.50;102262;1314;62184;-22
2021/11/12 14:32:52;;;;;;;18.90;11.00;;;;;;;7.11;80.39;99413.65;102160;1313;61181;-23
2021/11/12 14:46:51;;;;;;;17.80;12.50;;;;;;;7.42;78.60;99422.31;101914;1316;61543;-23
2021/11/12 14:49:26;;;;;;;18.70;10.30;;;;;;;7.03;80.73;99435.25;102268;1313;75557;-23
2021/11/12 14:54:45;;;;;;;20.60;12.90;;;;;;;7.86;77.30;99440.31;101897;1320;72835;-23
2021/11/12 14:59:56;;;;;;;21.80;13.40;;;;;;;7.71;77.37;99437.43;101763;1316;62030;-22
2021/11/12 15:02:28;;;;;;;21.20;13.10;;;;;;;7.40;78.53;99440.08;101795;1318;75698;-23
2021/11/12 15:04:57;;;;;;;14.40;8.90;;;;;;;7.00;80.31;99437.80;101724;1314;76000;-23
2021/11/12 15:07:46;;;;;;;16.90;11.00;;;;;;;7.30;79.54;99440.12;101805;1314;74703;-23
2021/11/12 15:10:25;;;;;;;18.90;11.10;;;;;;;7.77;77.50;99443.14;102050;1316;61129;-22
2021/11/12 15:12:56;;;;;;;16.50;10.40;;;;;;;7.73;77.37;99439.91;101922;1313;61839;-23
2021/11/12 15:15:25;;;;;;;16.30;11.40;;;;;;;7.42;78.40;99438.00;101976;1313;74078;-23
2021/11/12 15:17:54;;;;;;;19.20;11.10;;;;;;;7.04;79.89;99439.45;102088;1314;76219;-23
2021/11/12 15:20:23;;;;;;;14.10;9.10;;;;;;;6.81;81.07;99444.27;102058;1313;74236;-22
2021/11/12 15:31:01;;;;;;;21.10;12.70;;;;;;;7.05;79.45;99447.84;101807;1316;76082;-22
2021/11/12 15:33:30;;;;;;;18.60;12.90;;;;;;;6.89;80.07;99446.41;101977;1314;73378;-22
2021/11/12 15:36:02;;;;;;;19.60;11.80;;;;;;;6.63;81.13;99451.05;102063;1313;63802;-23
2021/11/12 15:38:36;;;;;;;13.80;8.90;;;;;;;6.91;80.37;99454.23;102115;1313;61122;-23
2021/11/12 15:42:09;;;;;;;20.50;13.60;;;;;;;7.12;79.13;99457.80;101876;1313;75784;-23
2021/11/12 15:44:18;;;;;;;17.70;9.40;;;;;;;7.18;78.96;99460.23;101723;1320;76092;-24
2021/11/12 15:47:04;;;;;;;20.40;13.50;;;;;;;6.95;79.59;99456.22;101862;1314;74471;-23
2021/11/12 15:49:35;;;;;;;25.20;14.00;;;;;;;6.63;80.75;99452.38;102091;1317;61499;-23
2021/11/12 15:52:11;;;;;;;19.70;11.40;;;;;;;6.61;81.07;99456.16;102133;1313;61330;-23
2021/11/12 15:54:52;;;;;;;22.10;13.20;;;;;;;7.10;79.39;99459.50;102231;1317;75943;-23
2021/11/12 16:11:17;;;;;;;16.20;9.90;;;;;;;7.46;78.10;99472.69;102265;1317;75948;-23
2021/11/12 16:27:22;;;;;;;15.40;8.40;;;;;;;6.79;79.53;99492.55;102293;1317;74639;-23
2021/11/12 16:29:53;;;;;;;16.20;8.80;;;;;;;7.28;78.44;99493.11;102327;1318;61214;-23
2021/11/12 16:32:26;;;;;;;15.00;10.10;;;;;;;7.80;76.14;99490.66;102231;1313;61218;-23
2021/11/12 16:35:00;;;;;;;19.50;10.80;;;;;;;7.81;75.93;99488.00;102189;1317;75721;-23
2021/11/12 16:37:32;;;;;;;20.10;11.60;;;;;;;7.60;76.24;99493.57;102171;1304;72351;-22
2021/11/12 16:40:08;;;;;;;21.00;11.10;;;;;;;7.34;76.83;99484.30;102159;1314;74194;-22
2021/11/12 16:42:58;;;;;;;16.20;10.80;;;;;;;7.05;77.53;99480.98;102171;1313;62266;-23
2021/11/12 16:48:28;;;;;;;18.20;10.30;;;;;;;7.35;77.16;99489.08;101931;1313;76109;-25
2021/11/12 17:06:50;;;;;;;22.00;12.50;;;;;;;6.37;79.56;99495.32;102127;1313;73508;-24
2021/11/12 17:14:59;;;;;;;18.10;12.60;;;;;;;6.32;79.22;99497.48;102288;1313;74614;-22
2021/11/12 17:23:45;;;;;;;19.00;13.00;;;;;;;5.40;82.99;99512.73;102282;1313;62788;-23
2021/11/12 17:46:13;;;;;;;18.40;10.40;;;;;;;6.06;82.56;99529.27;102319;1313;76055;-25
2021/11/12 17:48:35;;;;;;;16.70;10.70;;;;;;;5.47;85.01;99530.65;102284;1314;74466;-26
2021/11/12 18:02:10;;;;;;;22.50;13.10;;;;;;;5.57;84.20;99544.22;101867;1313;74652;-23
2021/11/12 18:04:56;;;;;;;19.50;11.50;;;;;;;5.89;83.33;99545.15;102154;1313;61341;-24
2021/11/12 18:10:34;;;;;;;28.50;15.60;;;;;;;5.61;83.86;99548.49;102302;1313;75800;-26
2021/11/12 21:46:37;;;;;;;19.90;11.20;;;;;;;6.65;73.96;99620.55;102278;1319;75520;-24
2021/11/12 21:49:05;;;;;;;21.20;11.50;;;;;;;6.55;73.95;99618.30;102170;1313;76070;-23
2021/11/12 21:51:40;;;;;;;19.70;11.60;;;;;;;6.27;74.95;99619.14;102141;1313;74477;-23
2021/11/12 21:54:09;;;;;;;20.90;11.50;;;;;;;5.97;75.09;99616.95;102146;1313;61913;-23
2021/11/12 21:56:37;;;;;;;22.80;11.60;;;;;;;5.74;75.97;99616.04;102143;1313;61395;-23
2021/11/12 21:59:07;;;;;;;18.20;10.10;;;;;;;6.03;74.79;99614.56;102154;1313;75729;-23
2021/11/12 22:01:36;;;;;;;15.60;9.10;;;;;;;6.44;73.25;99614.23;102156;1313;75502;-23
2021/11/12 22:04:05;;;;;;;17.00;10.40;;;;;;;6.43;73.45;99616.91;102060;1316;74434;-23